sensor_id;sensor_type;location;lat;lon;timestamp;P1;durP1;ratioP1;P2;durP2;ratioP2
63801;SDS011;49949;43.060;25.624;2023-04-15T00:01:20;4.20;;;1.63;;
63801;SDS011;49949;43.060;25.624;2023-04-15T00:03:47;3.08;;;1.80;;
63801;SDS011;49949;43.060;25.624;2023-04-15T00:06:16;4.68;;;1.90;;
63801;SDS011;49949;43.060;25.624;2023-04-15T00:08:43;6.15;;;1.83;;
63801;SDS011;49949;43.060;25.624;2023-04-15T00:11:09;6.65;;;2.03;;
63801;SDS011;49949;43.060;25.624;2023-04-15T00:13:35;4.60;;;1.98;;
63801;SDS011;49949;43.060;25.624;2023-04-15T00:16:01;4.28;;;2.22;;
63801;SDS011;49949;43.060;25.624;2023-04-15T00:18:27;8.20;;;1.85;;
63801;SDS011;49949;43.060;25.624;2023-04-15T00:20:53;5.75;;;1.80;;
63801;SDS011;49949;43.060;25.624;2023-04-15T00:23:19;11.52;;;1.77;;
63801;SDS011;49949;43.060;25.624;2023-04-15T00:25:45;4.38;;;2.05;;
63801;SDS011;49949;43.060;25.624;2023-04-15T00:28:11;4.32;;;2.00;;
63801;SDS011;49949;43.060;25.624;2023-04-15T00:30:37;5.07;;;1.88;;
63801;SDS011;49949;43.060;25.624;2023-04-15T00:33:02;4.10;;;1.75;;
63801;SDS011;49949;43.060;25.624;2023-04-15T00:35:28;2.10;;;1.92;;
63801;SDS011;49949;43.060;25.624;2023-04-15T00:37:56;3.65;;;1.40;;
63801;SDS011;49949;43.060;25.624;2023-04-15T00:40:23;3.10;;;1.50;;
63801;SDS011;49949;43.060;25.624;2023-04-15T00:42:50;4.00;;;1.33;;
63801;SDS011;49949;43.060;25.624;2023-04-15T00:45:16;3.78;;;1.40;;
63801;SDS011;49949;43.060;25.624;2023-04-15T00:47:42;7.70;;;1.33;;
63801;SDS011;49949;43.060;25.624;2023-04-15T00:50:08;7.03;;;1.50;;
63801;SDS011;49949;43.060;25.624;2023-04-15T00:52:35;2.33;;;0.77;;
63801;SDS011;49949;43.060;25.624;2023-04-15T00:55:01;8.27;;;1.27;;
63801;SDS011;49949;43.060;25.624;2023-04-15T00:57:28;3.10;;;1.38;;
63801;SDS011;49949;43.060;25.624;2023-04-15T00:59:54;9.60;;;1.52;;
63801;SDS011;49949;43.060;25.624;2023-04-15T01:02:21;2.92;;;1.42;;
63801;SDS011;49949;43.060;25.624;2023-04-15T01:04:47;4.20;;;1.17;;
63801;SDS011;49949;43.060;25.624;2023-04-15T01:07:13;5.60;;;1.77;;
63801;SDS011;49949;43.060;25.624;2023-04-15T01:09:39;4.95;;;1.50;;
63801;SDS011;49949;43.060;25.624;2023-04-15T01:12:05;1.92;;;1.00;;
63801;SDS011;49949;43.060;25.624;2023-04-15T01:14:32;5.78;;;1.80;;
63801;SDS011;49949;43.060;25.624;2023-04-15T01:16:58;9.30;;;1.58;;
63801;SDS011;49949;43.060;25.624;2023-04-15T01:19:24;4.00;;;1.38;;
63801;SDS011;49949;43.060;25.624;2023-04-15T01:21:51;6.30;;;1.40;;
63801;SDS011;49949;43.060;25.624;2023-04-15T01:24:17;6.93;;;1.30;;
63801;SDS011;49949;43.060;25.624;2023-04-15T01:26:43;3.28;;;1.33;;
63801;SDS011;49949;43.060;25.624;2023-04-15T01:29:10;4.70;;;1.52;;
63801;SDS011;49949;43.060;25.624;2023-04-15T01:31:36;7.75;;;1.63;;
63801;SDS011;49949;43.060;25.624;2023-04-15T01:34:02;8.00;;;1.60;;
63801;SDS011;49949;43.060;25.624;2023-04-15T01:36:28;4.10;;;1.33;;
63801;SDS011;49949;43.060;25.624;2023-04-15T01:38:54;7.38;;;1.70;;
63801;SDS011;49949;43.060;25.624;2023-04-15T01:41:24;7.22;;;2.67;;
63801;SDS011;49949;43.060;25.624;2023-04-15T01:43:51;18.70;;;6.60;;
63801;SDS011;49949;43.060;25.624;2023-04-15T01:46:17;3.90;;;2.20;;
63801;SDS011;49949;43.060;25.624;2023-04-15T01:48:43;4.85;;;2.10;;
63801;SDS011;49949;43.060;25.624;2023-04-15T01:51:08;4.22;;;2.30;;
63801;SDS011;49949;43.060;25.624;2023-04-15T01:53:34;11.38;;;3.65;;
63801;SDS011;49949;43.060;25.624;2023-04-15T01:56:00;8.50;;;2.50;;
63801;SDS011;49949;43.060;25.624;2023-04-15T01:58:26;9.35;;;3.38;;
63801;SDS011;49949;43.060;25.624;2023-04-15T02:00:51;6.88;;;3.58;;
63801;SDS011;49949;43.060;25.624;2023-04-15T02:03:17;6.93;;;2.22;;
63801;SDS011;49949;43.060;25.624;2023-04-15T02:05:43;5.10;;;2.25;;
63801;SDS011;49949;43.060;25.624;2023-04-15T02:08:09;6.82;;;3.15;;
63801;SDS011;49949;43.060;25.624;2023-04-15T02:10:35;8.20;;;2.78;;
63801;SDS011;49949;43.060;25.624;2023-04-15T02:13:00;7.07;;;2.35;;
63801;SDS011;49949;43.060;25.624;2023-04-15T02:15:26;8.02;;;2.70;;
63801;SDS011;49949;43.060;25.624;2023-04-15T02:17:54;12.60;;;2.50;;
63801;SDS011;49949;43.060;25.624;2023-04-15T02:20:20;2.78;;;2.33;;
63801;SDS011;49949;43.060;25.624;2023-04-15T02:22:46;4.05;;;2.50;;
63801;SDS011;49949;43.060;25.624;2023-04-15T02:25:12;4.82;;;2.63;;
63801;SDS011;49949;43.060;25.624;2023-04-15T02:27:38;9.05;;;2.80;;
63801;SDS011;49949;43.060;25.624;2023-04-15T02:30:04;8.95;;;2.90;;
63801;SDS011;49949;43.060;25.624;2023-04-15T02:32:31;8.57;;;2.25;;
63801;SDS011;49949;43.060;25.624;2023-04-15T02:35:07;6.90;;;2.35;;
63801;SDS011;49949;43.060;25.624;2023-04-15T02:37:34;8.15;;;2.00;;
63801;SDS011;49949;43.060;25.624;2023-04-15T02:40:05;3.75;;;2.28;;
63801;SDS011;49949;43.060;25.624;2023-04-15T02:42:33;5.32;;;2.60;;
63801;SDS011;49949;43.060;25.624;2023-04-15T02:44:59;13.05;;;3.30;;
63801;SDS011;49949;43.060;25.624;2023-04-15T02:47:24;11.52;;;4.70;;
63801;SDS011;49949;43.060;25.624;2023-04-15T02:49:50;10.68;;;5.35;;
63801;SDS011;49949;43.060;25.624;2023-04-15T02:52:16;7.55;;;4.18;;
63801;SDS011;49949;43.060;25.624;2023-04-15T02:54:42;7.38;;;3.90;;
63801;SDS011;49949;43.060;25.624;2023-04-15T02:57:08;4.82;;;2.28;;
63801;SDS011;49949;43.060;25.624;2023-04-15T02:59:35;6.22;;;2.33;;
63801;SDS011;49949;43.060;25.624;2023-04-15T03:02:01;11.07;;;2.47;;
63801;SDS011;49949;43.060;25.624;2023-04-15T03:04:27;5.18;;;3.22;;
63801;SDS011;49949;43.060;25.624;2023-04-15T03:06:55;9.23;;;3.28;;
63801;SDS011;49949;43.060;25.624;2023-04-15T03:09:21;9.60;;;2.80;;
63801;SDS011;49949;43.060;25.624;2023-04-15T03:11:46;5.32;;;2.47;;
63801;SDS011;49949;43.060;25.624;2023-04-15T03:14:12;4.22;;;2.53;;
63801;SDS011;49949;43.060;25.624;2023-04-15T03:16:38;7.43;;;3.72;;
63801;SDS011;49949;43.060;25.624;2023-04-15T03:19:04;6.78;;;3.25;;
63801;SDS011;49949;43.060;25.624;2023-04-15T03:21:29;5.68;;;2.88;;
63801;SDS011;49949;43.060;25.624;2023-04-15T03:23:55;10.45;;;2.72;;
63801;SDS011;49949;43.060;25.624;2023-04-15T03:26:28;7.80;;;2.25;;
63801;SDS011;49949;43.060;25.624;2023-04-15T03:28:54;6.63;;;3.55;;
63801;SDS011;49949;43.060;25.624;2023-04-15T03:31:20;10.50;;;3.40;;
63801;SDS011;49949;43.060;25.624;2023-04-15T03:33:46;10.45;;;3.65;;
63801;SDS011;49949;43.060;25.624;2023-04-15T03:36:12;10.13;;;3.85;;
63801;SDS011;49949;43.060;25.624;2023-04-15T03:38:37;9.13;;;5.05;;
63801;SDS011;49949;43.060;25.624;2023-04-15T03:41:03;11.43;;;4.93;;
63801;SDS011;49949;43.060;25.624;2023-04-15T03:43:29;7.57;;;4.03;;
63801;SDS011;49949;43.060;25.624;2023-04-15T03:45:55;9.38;;;4.47;;
63801;SDS011;49949;43.060;25.624;2023-04-15T03:48:21;15.90;;;6.35;;
63801;SDS011;49949;43.060;25.624;2023-04-15T03:50:46;22.02;;;10.90;;
63801;SDS011;49949;43.060;25.624;2023-04-15T03:53:12;25.02;;;8.95;;
63801;SDS011;49949;43.060;25.624;2023-04-15T03:55:38;22.40;;;9.48;;
63801;SDS011;49949;43.060;25.624;2023-04-15T03:58:04;32.75;;;17.92;;
63801;SDS011;49949;43.060;25.624;2023-04-15T04:00:30;29.20;;;15.38;;
63801;SDS011;49949;43.060;25.624;2023-04-15T04:02:55;26.30;;;11.73;;
63801;SDS011;49949;43.060;25.624;2023-04-15T04:05:21;16.40;;;8.70;;
63801;SDS011;49949;43.060;25.624;2023-04-15T04:07:47;23.85;;;10.32;;
63801;SDS011;49949;43.060;25.624;2023-04-15T04:10:12;13.02;;;7.00;;
63801;SDS011;49949;43.060;25.624;2023-04-15T04:12:38;12.48;;;5.88;;
63801;SDS011;49949;43.060;25.624;2023-04-15T04:15:04;12.10;;;4.95;;
63801;SDS011;49949;43.060;25.624;2023-04-15T04:17:30;14.35;;;5.28;;
63801;SDS011;49949;43.060;25.624;2023-04-15T04:19:56;20.50;;;6.85;;
63801;SDS011;49949;43.060;25.624;2023-04-15T04:22:22;19.13;;;7.15;;
63801;SDS011;49949;43.060;25.624;2023-04-15T04:24:48;15.70;;;7.18;;
63801;SDS011;49949;43.060;25.624;2023-04-15T04:27:14;16.40;;;7.55;;
63801;SDS011;49949;43.060;25.624;2023-04-15T04:29:40;14.23;;;6.93;;
63801;SDS011;49949;43.060;25.624;2023-04-15T04:32:06;18.10;;;7.45;;
63801;SDS011;49949;43.060;25.624;2023-04-15T04:34:31;26.25;;;8.05;;
63801;SDS011;49949;43.060;25.624;2023-04-15T04:36:57;16.27;;;6.80;;
63801;SDS011;49949;43.060;25.624;2023-04-15T04:39:23;16.48;;;8.02;;
63801;SDS011;49949;43.060;25.624;2023-04-15T04:41:48;15.75;;;7.93;;
63801;SDS011;49949;43.060;25.624;2023-04-15T04:44:16;11.90;;;6.00;;
63801;SDS011;49949;43.060;25.624;2023-04-15T04:46:42;11.63;;;6.50;;
63801;SDS011;49949;43.060;25.624;2023-04-15T04:49:07;15.80;;;6.13;;
63801;SDS011;49949;43.060;25.624;2023-04-15T04:51:33;16.67;;;6.30;;
63801;SDS011;49949;43.060;25.624;2023-04-15T04:53:59;12.95;;;5.88;;
63801;SDS011;49949;43.060;25.624;2023-04-15T04:56:25;20.63;;;7.00;;
63801;SDS011;49949;43.060;25.624;2023-04-15T04:58:51;15.90;;;7.00;;
63801;SDS011;49949;43.060;25.624;2023-04-15T05:01:17;13.45;;;5.50;;
63801;SDS011;49949;43.060;25.624;2023-04-15T05:03:42;10.50;;;5.22;;
63801;SDS011;49949;43.060;25.624;2023-04-15T05:06:08;11.45;;;5.63;;
63801;SDS011;49949;43.060;25.624;2023-04-15T05:08:34;13.45;;;5.18;;
63801;SDS011;49949;43.060;25.624;2023-04-15T05:11:01;12.57;;;5.60;;
63801;SDS011;49949;43.060;25.624;2023-04-15T05:13:27;12.23;;;5.35;;
63801;SDS011;49949;43.060;25.624;2023-04-15T05:15:54;11.10;;;4.43;;
63801;SDS011;49949;43.060;25.624;2023-04-15T05:18:20;8.10;;;4.57;;
63801;SDS011;49949;43.060;25.624;2023-04-15T05:20:45;7.40;;;4.38;;
63801;SDS011;49949;43.060;25.624;2023-04-15T05:23:11;10.60;;;4.50;;
63801;SDS011;49949;43.060;25.624;2023-04-15T05:25:37;8.68;;;4.60;;
63801;SDS011;49949;43.060;25.624;2023-04-15T05:28:03;20.00;;;4.55;;
63801;SDS011;49949;43.060;25.624;2023-04-15T05:30:28;9.75;;;4.30;;
63801;SDS011;49949;43.060;25.624;2023-04-15T05:32:54;7.78;;;3.80;;
63801;SDS011;49949;43.060;25.624;2023-04-15T05:35:20;8.90;;;3.75;;
63801;SDS011;49949;43.060;25.624;2023-04-15T05:37:46;11.93;;;4.07;;
63801;SDS011;49949;43.060;25.624;2023-04-15T05:40:11;7.90;;;3.72;;
63801;SDS011;49949;43.060;25.624;2023-04-15T05:42:37;12.88;;;3.05;;
63801;SDS011;49949;43.060;25.624;2023-04-15T05:45:03;9.18;;;2.95;;
63801;SDS011;49949;43.060;25.624;2023-04-15T05:47:33;6.40;;;3.30;;
63801;SDS011;49949;43.060;25.624;2023-04-15T05:49:59;9.50;;;3.42;;
63801;SDS011;49949;43.060;25.624;2023-04-15T05:52:25;6.25;;;3.70;;
63801;SDS011;49949;43.060;25.624;2023-04-15T05:54:51;6.63;;;4.07;;
63801;SDS011;49949;43.060;25.624;2023-04-15T05:57:17;6.35;;;3.40;;
63801;SDS011;49949;43.060;25.624;2023-04-15T05:59:42;7.63;;;3.38;;
63801;SDS011;49949;43.060;25.624;2023-04-15T06:02:09;9.63;;;3.00;;
63801;SDS011;49949;43.060;25.624;2023-04-15T06:04:34;5.45;;;1.95;;
63801;SDS011;49949;43.060;25.624;2023-04-15T06:07:01;7.88;;;2.50;;
63801;SDS011;49949;43.060;25.624;2023-04-15T06:09:26;5.45;;;2.80;;
63801;SDS011;49949;43.060;25.624;2023-04-15T06:11:53;6.47;;;2.72;;
63801;SDS011;49949;43.060;25.624;2023-04-15T06:14:18;7.32;;;4.35;;
63801;SDS011;49949;43.060;25.624;2023-04-15T06:16:44;11.02;;;5.05;;
63801;SDS011;49949;43.060;25.624;2023-04-15T06:19:10;15.23;;;5.20;;
63801;SDS011;49949;43.060;25.624;2023-04-15T06:21:36;8.60;;;4.90;;
63801;SDS011;49949;43.060;25.624;2023-04-15T06:24:02;16.05;;;5.20;;
63801;SDS011;49949;43.060;25.624;2023-04-15T06:26:28;12.95;;;4.57;;
63801;SDS011;49949;43.060;25.624;2023-04-15T06:28:54;12.07;;;3.83;;
63801;SDS011;49949;43.060;25.624;2023-04-15T06:31:19;9.05;;;3.50;;
63801;SDS011;49949;43.060;25.624;2023-04-15T06:33:45;11.70;;;4.25;;
63801;SDS011;49949;43.060;25.624;2023-04-15T06:36:11;9.07;;;3.58;;
63801;SDS011;49949;43.060;25.624;2023-04-15T06:38:36;11.02;;;3.50;;
63801;SDS011;49949;43.060;25.624;2023-04-15T06:41:02;7.65;;;2.20;;
63801;SDS011;49949;43.060;25.624;2023-04-15T06:43:28;9.85;;;3.03;;
63801;SDS011;49949;43.060;25.624;2023-04-15T06:45:54;9.68;;;3.25;;
63801;SDS011;49949;43.060;25.624;2023-04-15T06:48:21;3.78;;;2.00;;
63801;SDS011;49949;43.060;25.624;2023-04-15T06:50:48;7.25;;;2.17;;
63801;SDS011;49949;43.060;25.624;2023-04-15T06:53:14;8.65;;;2.17;;
63801;SDS011;49949;43.060;25.624;2023-04-15T06:55:40;7.07;;;1.77;;
63801;SDS011;49949;43.060;25.624;2023-04-15T06:58:05;4.82;;;1.40;;
63801;SDS011;49949;43.060;25.624;2023-04-15T07:00:32;5.22;;;1.00;;
63801;SDS011;49949;43.060;25.624;2023-04-15T07:02:58;5.85;;;1.80;;
63801;SDS011;49949;43.060;25.624;2023-04-15T07:05:27;8.43;;;1.58;;
63801;SDS011;49949;43.060;25.624;2023-04-15T07:07:53;1.95;;;0.93;;
63801;SDS011;49949;43.060;25.624;2023-04-15T07:10:19;5.82;;;1.10;;
63801;SDS011;49949;43.060;25.624;2023-04-15T07:12:45;6.28;;;1.60;;
63801;SDS011;49949;43.060;25.624;2023-04-15T07:15:12;6.05;;;1.58;;
63801;SDS011;49949;43.060;25.624;2023-04-15T07:17:39;8.50;;;1.58;;
63801;SDS011;49949;43.060;25.624;2023-04-15T07:20:07;6.47;;;1.80;;
63801;SDS011;49949;43.060;25.624;2023-04-15T07:22:33;10.18;;;4.10;;
63801;SDS011;49949;43.060;25.624;2023-04-15T07:24:59;5.00;;;1.30;;
63801;SDS011;49949;43.060;25.624;2023-04-15T07:27:25;7.85;;;1.50;;
63801;SDS011;49949;43.060;25.624;2023-04-15T07:29:51;1.92;;;1.13;;
63801;SDS011;49949;43.060;25.624;2023-04-15T07:32:17;6.00;;;1.58;;
63801;SDS011;49949;43.060;25.624;2023-04-15T07:34:43;2.85;;;1.20;;
63801;SDS011;49949;43.060;25.624;2023-04-15T07:37:09;3.20;;;1.05;;
63801;SDS011;49949;43.060;25.624;2023-04-15T07:39:34;3.47;;;1.10;;
63801;SDS011;49949;43.060;25.624;2023-04-15T07:42:01;2.10;;;1.08;;
63801;SDS011;49949;43.060;25.624;2023-04-15T07:44:28;1.88;;;0.90;;
63801;SDS011;49949;43.060;25.624;2023-04-15T07:46:54;2.42;;;1.13;;
63801;SDS011;49949;43.060;25.624;2023-04-15T07:49:20;1.80;;;0.60;;
63801;SDS011;49949;43.060;25.624;2023-04-15T07:51:46;2.25;;;0.63;;
63801;SDS011;49949;43.060;25.624;2023-04-15T07:54:13;3.13;;;0.90;;
63801;SDS011;49949;43.060;25.624;2023-04-15T07:56:39;2.58;;;0.75;;
63801;SDS011;49949;43.060;25.624;2023-04-15T07:59:05;1.00;;;0.60;;
63801;SDS011;49949;43.060;25.624;2023-04-15T08:01:31;1.63;;;0.57;;
63801;SDS011;49949;43.060;25.624;2023-04-15T08:03:57;0.82;;;0.60;;
63801;SDS011;49949;43.060;25.624;2023-04-15T08:06:23;0.52;;;0.50;;
63801;SDS011;49949;43.060;25.624;2023-04-15T08:08:49;3.40;;;0.80;;
63801;SDS011;49949;43.060;25.624;2023-04-15T08:11:15;1.50;;;0.52;;
63801;SDS011;49949;43.060;25.624;2023-04-15T08:13:41;2.15;;;0.60;;
63801;SDS011;49949;43.060;25.624;2023-04-15T08:18:42;0.85;;;0.55;;
63801;SDS011;49949;43.060;25.624;2023-04-15T08:21:08;3.30;;;0.70;;
63801;SDS011;49949;43.060;25.624;2023-04-15T08:23:34;4.57;;;0.93;;
63801;SDS011;49949;43.060;25.624;2023-04-15T08:26:00;2.25;;;0.45;;
63801;SDS011;49949;43.060;25.624;2023-04-15T08:28:26;2.97;;;0.55;;
63801;SDS011;49949;43.060;25.624;2023-04-15T08:30:52;5.70;;;0.93;;
63801;SDS011;49949;43.060;25.624;2023-04-15T08:33:17;8.73;;;0.80;;
63801;SDS011;49949;43.060;25.624;2023-04-15T08:35:43;0.98;;;0.40;;
63801;SDS011;49949;43.060;25.624;2023-04-15T08:38:09;1.33;;;0.70;;
63801;SDS011;49949;43.060;25.624;2023-04-15T08:40:39;1.58;;;0.40;;
63801;SDS011;49949;43.060;25.624;2023-04-15T08:43:07;24.58;;;1.17;;
63801;SDS011;49949;43.060;25.624;2023-04-15T08:45:36;1.95;;;0.55;;
63801;SDS011;49949;43.060;25.624;2023-04-15T08:48:03;1.23;;;0.50;;
63801;SDS011;49949;43.060;25.624;2023-04-15T08:50:30;2.40;;;0.40;;
63801;SDS011;49949;43.060;25.624;2023-04-15T08:53:00;1.55;;;0.35;;
63801;SDS011;49949;43.060;25.624;2023-04-15T08:55:29;2.47;;;0.70;;
63801;SDS011;49949;43.060;25.624;2023-04-15T08:57:59;1.52;;;0.52;;
63801;SDS011;49949;43.060;25.624;2023-04-15T09:00:26;3.80;;;0.70;;
63801;SDS011;49949;43.060;25.624;2023-04-15T09:02:53;1.80;;;0.57;;
63801;SDS011;49949;43.060;25.624;2023-04-15T09:05:20;3.13;;;0.60;;
63801;SDS011;49949;43.060;25.624;2023-04-15T09:07:47;1.58;;;0.73;;
63801;SDS011;49949;43.060;25.624;2023-04-15T09:10:14;0.65;;;0.50;;
63801;SDS011;49949;43.060;25.624;2023-04-15T09:12:40;1.48;;;0.50;;
63801;SDS011;49949;43.060;25.624;2023-04-15T09:15:06;1.25;;;0.50;;
63801;SDS011;49949;43.060;25.624;2023-04-15T09:17:36;2.40;;;0.60;;
63801;SDS011;49949;43.060;25.624;2023-04-15T09:22:33;0.88;;;0.50;;
63801;SDS011;49949;43.060;25.624;2023-04-15T09:25:00;0.52;;;0.40;;
63801;SDS011;49949;43.060;25.624;2023-04-15T09:27:26;2.45;;;0.82;;
63801;SDS011;49949;43.060;25.624;2023-04-15T09:29:52;4.47;;;0.70;;
63801;SDS011;49949;43.060;25.624;2023-04-15T09:32:18;4.88;;;0.77;;
63801;SDS011;49949;43.060;25.624;2023-04-15T09:34:45;1.10;;;0.50;;
63801;SDS011;49949;43.060;25.624;2023-04-15T09:37:12;2.35;;;0.77;;
63801;SDS011;49949;43.060;25.624;2023-04-15T09:39:49;2.30;;;0.40;;
63801;SDS011;49949;43.060;25.624;2023-04-15T09:42:16;1.63;;;0.52;;
63801;SDS011;49949;43.060;25.624;2023-04-15T09:44:48;1.58;;;0.63;;
63801;SDS011;49949;43.060;25.624;2023-04-15T09:47:28;3.42;;;0.70;;
63801;SDS011;49949;43.060;25.624;2023-04-15T09:49:55;1.40;;;0.65;;
63801;SDS011;49949;43.060;25.624;2023-04-15T09:52:22;2.30;;;0.50;;
63801;SDS011;49949;43.060;25.624;2023-04-15T09:54:48;1.17;;;0.75;;
63801;SDS011;49949;43.060;25.624;2023-04-15T09:57:19;1.60;;;0.63;;
63801;SDS011;49949;43.060;25.624;2023-04-15T09:59:46;2.05;;;0.82;;
63801;SDS011;49949;43.060;25.624;2023-04-15T10:02:12;0.82;;;0.57;;
63801;SDS011;49949;43.060;25.624;2023-04-15T10:04:39;2.17;;;0.70;;
63801;SDS011;49949;43.060;25.624;2023-04-15T10:07:06;2.80;;;0.65;;
63801;SDS011;49949;43.060;25.624;2023-04-15T10:09:34;2.83;;;0.60;;
63801;SDS011;49949;43.060;25.624;2023-04-15T10:12:02;1.90;;;0.50;;
63801;SDS011;49949;43.060;25.624;2023-04-15T10:14:31;3.08;;;0.80;;
63801;SDS011;49949;43.060;25.624;2023-04-15T10:17:00;3.30;;;0.50;;
63801;SDS011;49949;43.060;25.624;2023-04-15T10:19:30;3.10;;;0.57;;
63801;SDS011;49949;43.060;25.624;2023-04-15T10:21:57;2.20;;;0.70;;
63801;SDS011;49949;43.060;25.624;2023-04-15T10:24:24;5.07;;;0.73;;
63801;SDS011;49949;43.060;25.624;2023-04-15T10:26:50;1.20;;;0.73;;
63801;SDS011;49949;43.060;25.624;2023-04-15T10:29:16;3.83;;;0.90;;
63801;SDS011;49949;43.060;25.624;2023-04-15T10:31:42;1.75;;;0.80;;
63801;SDS011;49949;43.060;25.624;2023-04-15T10:34:09;2.22;;;0.68;;
63801;SDS011;49949;43.060;25.624;2023-04-15T10:36:35;3.70;;;0.75;;
63801;SDS011;49949;43.060;25.624;2023-04-15T10:39:01;1.70;;;0.75;;
63801;SDS011;49949;43.060;25.624;2023-04-15T10:41:28;2.83;;;0.60;;
63801;SDS011;49949;43.060;25.624;2023-04-15T10:44:03;3.55;;;0.60;;
63801;SDS011;49949;43.060;25.624;2023-04-15T10:49:06;0.82;;;0.70;;
63801;SDS011;49949;43.060;25.624;2023-04-15T10:51:35;1.52;;;0.70;;
63801;SDS011;49949;43.060;25.624;2023-04-15T10:54:07;3.03;;;1.27;;
63801;SDS011;49949;43.060;25.624;2023-04-15T10:56:37;5.22;;;0.75;;
63801;SDS011;49949;43.060;25.624;2023-04-15T10:59:05;1.60;;;0.70;;
63801;SDS011;49949;43.060;25.624;2023-04-15T11:09:58;3.75;;;0.88;;
63801;SDS011;49949;43.060;25.624;2023-04-15T11:12:32;2.47;;;0.90;;
63801;SDS011;49949;43.060;25.624;2023-04-15T11:14:59;3.80;;;0.80;;
63801;SDS011;49949;43.060;25.624;2023-04-15T11:21:03;5.18;;;0.80;;
63801;SDS011;49949;43.060;25.624;2023-04-15T11:23:31;1.52;;;0.63;;
63801;SDS011;49949;43.060;25.624;2023-04-15T11:26:01;1.90;;;0.85;;
63801;SDS011;49949;43.060;25.624;2023-04-15T11:28:31;5.28;;;0.82;;
63801;SDS011;49949;43.060;25.624;2023-04-15T11:30:58;2.75;;;0.63;;
63801;SDS011;49949;43.060;25.624;2023-04-15T11:33:30;3.55;;;0.80;;
63801;SDS011;49949;43.060;25.624;2023-04-15T11:35:56;2.05;;;0.43;;
63801;SDS011;49949;43.060;25.624;2023-04-15T11:38:22;3.40;;;0.60;;
63801;SDS011;49949;43.060;25.624;2023-04-15T11:40:49;0.60;;;0.38;;
63801;SDS011;49949;43.060;25.624;2023-04-15T11:48:13;4.07;;;0.93;;
63801;SDS011;49949;43.060;25.624;2023-04-15T11:50:39;3.25;;;0.60;;
63801;SDS011;49949;43.060;25.624;2023-04-15T11:53:05;10.55;;;0.90;;
63801;SDS011;49949;43.060;25.624;2023-04-15T11:55:41;3.20;;;0.60;;
63801;SDS011;49949;43.060;25.624;2023-04-15T12:08:48;6.50;;;1.00;;
63801;SDS011;49949;43.060;25.624;2023-04-15T12:11:48;3.95;;;1.10;;
63801;SDS011;49949;43.060;25.624;2023-04-15T12:17:00;4.13;;;1.00;;
63801;SDS011;49949;43.060;25.624;2023-04-15T12:19:28;0.80;;;0.80;;
63801;SDS011;49949;43.060;25.624;2023-04-15T12:21:57;2.95;;;0.95;;
63801;SDS011;49949;43.060;25.624;2023-04-15T12:24:24;2.45;;;1.00;;
63801;SDS011;49949;43.060;25.624;2023-04-15T12:26:51;1.30;;;0.98;;
63801;SDS011;49949;43.060;25.624;2023-04-15T12:29:19;5.18;;;0.80;;
63801;SDS011;49949;43.060;25.624;2023-04-15T12:34:17;3.72;;;1.50;;
63801;SDS011;49949;43.060;25.624;2023-04-15T12:36:54;4.47;;;0.85;;
63801;SDS011;49949;43.060;25.624;2023-04-15T12:39:21;2.67;;;1.15;;
63801;SDS011;49949;43.060;25.624;2023-04-15T12:41:48;3.25;;;1.10;;
63801;SDS011;49949;43.060;25.624;2023-04-15T12:44:13;1.75;;;1.05;;
63801;SDS011;49949;43.060;25.624;2023-04-15T12:46:39;4.03;;;1.15;;
63801;SDS011;49949;43.060;25.624;2023-04-15T12:49:05;2.58;;;1.15;;
63801;SDS011;49949;43.060;25.624;2023-04-15T12:51:32;5.13;;;1.33;;
63801;SDS011;49949;43.060;25.624;2023-04-15T12:53:57;2.72;;;1.20;;
63801;SDS011;49949;43.060;25.624;2023-04-15T12:56:23;4.25;;;1.20;;
63801;SDS011;49949;43.060;25.624;2023-04-15T12:58:49;5.95;;;1.55;;
63801;SDS011;49949;43.060;25.624;2023-04-15T13:01:15;4.65;;;1.50;;
63801;SDS011;49949;43.060;25.624;2023-04-15T13:03:41;4.00;;;1.50;;
63801;SDS011;49949;43.060;25.624;2023-04-15T13:06:07;2.70;;;1.80;;
63801;SDS011;49949;43.060;25.624;2023-04-15T13:08:33;4.00;;;1.70;;
63801;SDS011;49949;43.060;25.624;2023-04-15T13:10:58;3.00;;;1.60;;
63801;SDS011;49949;43.060;25.624;2023-04-15T13:13:24;1.65;;;1.50;;
63801;SDS011;49949;43.060;25.624;2023-04-15T13:15:51;6.57;;;1.70;;
63801;SDS011;49949;43.060;25.624;2023-04-15T13:18:17;2.65;;;1.90;;
63801;SDS011;49949;43.060;25.624;2023-04-15T13:20:43;4.88;;;1.60;;
63801;SDS011;49949;43.060;25.624;2023-04-15T13:23:08;3.45;;;1.15;;
63801;SDS011;49949;43.060;25.624;2023-04-15T13:25:34;2.50;;;1.15;;
63801;SDS011;49949;43.060;25.624;2023-04-15T13:28:00;1.40;;;1.20;;
63801;SDS011;49949;43.060;25.624;2023-04-15T13:30:27;2.47;;;1.60;;
63801;SDS011;49949;43.060;25.624;2023-04-15T13:32:52;7.10;;;1.77;;
63801;SDS011;49949;43.060;25.624;2023-04-15T13:35:19;2.03;;;1.67;;
63801;SDS011;49949;43.060;25.624;2023-04-15T13:37:45;3.55;;;1.60;;
63801;SDS011;49949;43.060;25.624;2023-04-15T13:40:11;4.18;;;1.10;;
63801;SDS011;49949;43.060;25.624;2023-04-15T13:42:37;3.53;;;1.23;;
63801;SDS011;49949;43.060;25.624;2023-04-15T13:45:03;4.47;;;1.52;;
63801;SDS011;49949;43.060;25.624;2023-04-15T13:47:29;1.35;;;1.23;;
63801;SDS011;49949;43.060;25.624;2023-04-15T13:49:55;1.67;;;1.25;;
63801;SDS011;49949;43.060;25.624;2023-04-15T13:52:21;1.65;;;1.30;;
63801;SDS011;49949;43.060;25.624;2023-04-15T13:54:47;3.03;;;1.52;;
63801;SDS011;49949;43.060;25.624;2023-04-15T13:57:13;4.50;;;1.58;;
63801;SDS011;49949;43.060;25.624;2023-04-15T13:59:39;2.63;;;1.40;;
63801;SDS011;49949;43.060;25.624;2023-04-15T14:02:05;4.00;;;1.40;;
63801;SDS011;49949;43.060;25.624;2023-04-15T14:04:31;3.25;;;1.25;;
63801;SDS011;49949;43.060;25.624;2023-04-15T14:06:57;2.15;;;1.13;;
63801;SDS011;49949;43.060;25.624;2023-04-15T14:09:22;2.55;;;1.25;;
63801;SDS011;49949;43.060;25.624;2023-04-15T14:11:49;2.75;;;1.25;;
63801;SDS011;49949;43.060;25.624;2023-04-15T14:14:15;1.30;;;1.10;;
63801;SDS011;49949;43.060;25.624;2023-04-15T14:16:41;2.22;;;1.15;;
63801;SDS011;49949;43.060;25.624;2023-04-15T14:19:07;2.45;;;1.10;;
63801;SDS011;49949;43.060;25.624;2023-04-15T14:21:32;1.67;;;0.88;;
63801;SDS011;49949;43.060;25.624;2023-04-15T14:23:58;3.47;;;1.13;;
63801;SDS011;49949;43.060;25.624;2023-04-15T14:26:24;3.25;;;1.08;;
63801;SDS011;49949;43.060;25.624;2023-04-15T14:28:50;1.30;;;1.17;;
63801;SDS011;49949;43.060;25.624;2023-04-15T14:31:15;2.25;;;1.17;;
63801;SDS011;49949;43.060;25.624;2023-04-15T14:33:41;3.50;;;1.23;;
63801;SDS011;49949;43.060;25.624;2023-04-15T14:36:07;4.50;;;1.00;;
63801;SDS011;49949;43.060;25.624;2023-04-15T14:38:34;4.65;;;1.38;;
63801;SDS011;49949;43.060;25.624;2023-04-15T14:41:06;2.47;;;1.02;;
63801;SDS011;49949;43.060;25.624;2023-04-15T14:43:33;1.85;;;1.00;;
63801;SDS011;49949;43.060;25.624;2023-04-15T14:45:59;4.75;;;0.93;;
63801;SDS011;49949;43.060;25.624;2023-04-15T14:48:24;2.50;;;0.90;;
63801;SDS011;49949;43.060;25.624;2023-04-15T14:50:50;2.47;;;0.90;;
63801;SDS011;49949;43.060;25.624;2023-04-15T14:53:17;4.20;;;0.90;;
63801;SDS011;49949;43.060;25.624;2023-04-15T14:55:42;1.27;;;1.05;;
63801;SDS011;49949;43.060;25.624;2023-04-15T14:58:09;3.58;;;1.10;;
63801;SDS011;49949;43.060;25.624;2023-04-15T15:00:35;2.13;;;1.10;;
63801;SDS011;49949;43.060;25.624;2023-04-15T15:03:06;2.40;;;1.20;;
63801;SDS011;49949;43.060;25.624;2023-04-15T15:05:41;5.95;;;1.13;;
63801;SDS011;49949;43.060;25.624;2023-04-15T15:08:08;3.80;;;1.13;;